createdAt,value
2022-12-29T00:00:24.694Z,2.90
2022-12-29T00:02:51.488Z,2.65
2022-12-29T00:05:18.240Z,2.40
2022-12-29T00:07:44.899Z,3.63
2022-12-29T00:10:11.616Z,3.80
2022-12-29T00:12:38.469Z,3.10
2022-12-29T00:15:05.123Z,2.92
2022-12-29T00:17:31.786Z,3.67
2022-12-29T00:19:58.657Z,4.17
2022-12-29T00:22:25.304Z,3.20
2022-12-29T00:24:51.957Z,3.53
2022-12-29T00:27:18.588Z,2.75
2022-12-29T00:29:45.445Z,2.90
2022-12-29T00:32:12.313Z,3.43
2022-12-29T00:34:39.178Z,3.45
2022-12-29T00:37:05.829Z,4.00
2022-12-29T00:39:32.508Z,2.65
2022-12-29T00:42:00.136Z,2.70
2022-12-29T00:44:26.801Z,2.73
2022-12-29T00:46:53.512Z,3.05
2022-12-29T00:49:20.173Z,3.50
2022-12-29T00:51:46.844Z,2.83
2022-12-29T00:54:13.585Z,3.70
2022-12-29T00:56:40.857Z,5.37
2022-12-29T00:59:07.540Z,4.03
2022-12-29T01:01:34.555Z,3.95
2022-12-29T01:04:03.971Z,3.67
2022-12-29T01:06:31.103Z,3.63
2022-12-29T01:08:57.742Z,5.03
2022-12-29T01:11:24.397Z,2.72
2022-12-29T01:13:51.201Z,3.03
2022-12-29T01:16:17.892Z,2.80
2022-12-29T01:18:45.134Z,3.35
2022-12-29T01:21:11.785Z,2.60
2022-12-29T01:23:38.443Z,2.63
2022-12-29T01:26:05.093Z,2.53
2022-12-29T01:28:31.744Z,3.60
2022-12-29T01:30:59.239Z,2.92
2022-12-29T01:33:25.872Z,4.03
2022-12-29T01:35:52.729Z,3.97
2022-12-29T01:38:19.593Z,3.17
2022-12-29T01:40:46.244Z,2.88
2022-12-29T01:43:13.076Z,2.75
2022-12-29T01:45:39.709Z,3.27
2022-12-29T01:48:06.375Z,2.38
2022-12-29T01:50:33.024Z,2.70
2022-12-29T01:53:00.117Z,2.97
2022-12-29T01:55:26.748Z,2.75
2022-12-29T01:57:53.417Z,2.77
2022-12-29T02:00:20.069Z,2.75
2022-12-29T02:02:46.973Z,2.85
2022-12-29T02:05:13.906Z,3.00
2022-12-29T02:07:40.546Z,2.67
2022-12-29T02:10:07.275Z,3.90
2022-12-29T02:12:33.931Z,3.40
2022-12-29T02:15:00.835Z,4.40
2022-12-29T02:17:27.711Z,2.38
2022-12-29T02:19:54.574Z,3.72
2022-12-29T02:22:21.222Z,2.80
2022-12-29T02:24:47.890Z,2.88
2022-12-29T02:27:14.734Z,2.08
2022-12-29T02:29:41.399Z,3.92
2022-12-29T02:32:08.119Z,2.30
2022-12-29T02:34:35.042Z,2.23
2022-12-29T02:37:01.682Z,2.25
2022-12-29T02:39:28.392Z,2.50
2022-12-29T02:41:55.045Z,2.65
2022-12-29T02:44:21.716Z,3.20
2022-12-29T02:46:48.402Z,2.50
2022-12-29T02:49:15.072Z,3.33
2022-12-29T02:51:41.964Z,2.88
2022-12-29T02:54:09.072Z,2.50
2022-12-29T02:56:35.723Z,3.15
2022-12-29T02:59:02.630Z,2.73
2022-12-29T03:01:29.597Z,2.60
2022-12-29T03:03:56.292Z,2.20
2022-12-29T03:06:25.520Z,2.20
2022-12-29T03:08:52.384Z,2.80
2022-12-29T03:11:19.041Z,2.70
2022-12-29T03:13:45.893Z,2.63
2022-12-29T03:16:12.782Z,2.45
2022-12-29T03:18:39.677Z,3.03
2022-12-29T03:21:06.363Z,2.17
2022-12-29T03:23:33.672Z,2.37
2022-12-29T03:26:00.319Z,2.80
2022-12-29T03:28:27.015Z,2.90
2022-12-29T03:30:53.780Z,2.60
2022-12-29T03:33:20.683Z,2.78
2022-12-29T03:35:47.385Z,2.13
2022-12-29T03:38:14.043Z,2.45
2022-12-29T03:40:40.956Z,3.90
2022-12-29T03:43:07.657Z,2.60
2022-12-29T03:45:34.317Z,3.47
2022-12-29T03:48:00.992Z,2.70
2022-12-29T03:50:27.668Z,3.10
2022-12-29T03:52:54.332Z,2.92
2022-12-29T03:55:21.213Z,3.70
2022-12-29T03:57:47.876Z,3.45
2022-12-29T04:00:14.558Z,2.70
2022-12-29T04:02:41.362Z,4.55
2022-12-29T04:05:08.194Z,2.30
2022-12-29T04:07:35.048Z,2.65
2022-12-29T04:10:01.837Z,2.72
2022-12-29T04:12:28.737Z,3.13
2022-12-29T04:14:55.422Z,3.08
2022-12-29T04:17:22.108Z,3.75
2022-12-29T04:19:48.809Z,3.58
2022-12-29T04:22:15.554Z,3.45
2022-12-29T04:24:42.444Z,3.27
2022-12-29T04:27:09.102Z,2.97
2022-12-29T04:29:35.771Z,2.72
2022-12-29T04:32:02.458Z,2.70
2022-12-29T04:34:29.348Z,2.55
2022-12-29T04:36:56.031Z,2.60
2022-12-29T04:39:22.904Z,2.97
2022-12-29T04:41:49.592Z,2.65
2022-12-29T04:44:16.265Z,3.20
2022-12-29T04:46:45.172Z,2.90
2022-12-29T04:49:11.891Z,2.80
2022-12-29T04:51:38.849Z,3.17
2022-12-29T04:54:05.583Z,2.78
2022-12-29T04:56:32.250Z,2.75
2022-12-29T04:58:59.134Z,3.80
2022-12-29T05:01:25.872Z,3.33
2022-12-29T05:03:52.860Z,3.55
2022-12-29T05:06:19.819Z,2.90
2022-12-29T05:08:46.709Z,3.22
2022-12-29T05:11:13.356Z,3.55
2022-12-29T05:13:40.228Z,2.80
2022-12-29T05:16:06.943Z,4.13
2022-12-29T05:18:33.645Z,3.33
2022-12-29T05:21:00.327Z,2.78
2022-12-29T05:23:26.984Z,3.17
2022-12-29T05:25:53.678Z,2.97
2022-12-29T05:28:20.352Z,2.80
2022-12-29T05:30:47.239Z,3.67
2022-12-29T05:33:13.891Z,3.33
2022-12-29T05:35:40.790Z,4.00
2022-12-29T05:38:07.682Z,3.17
2022-12-29T05:40:34.583Z,2.97
2022-12-29T05:43:01.264Z,2.53
2022-12-29T05:45:27.958Z,2.80
2022-12-29T05:47:54.659Z,3.17
2022-12-29T05:50:21.552Z,2.90
2022-12-29T05:52:48.227Z,3.10
2022-12-29T05:55:14.880Z,4.47
2022-12-29T05:57:41.787Z,3.45
2022-12-29T06:00:08.452Z,2.50
2022-12-29T06:02:35.529Z,3.20
2022-12-29T06:05:02.487Z,3.63
2022-12-29T06:07:29.326Z,3.17
2022-12-29T06:09:56.198Z,3.30
2022-12-29T06:12:22.873Z,3.50
2022-12-29T06:14:49.930Z,3.77
2022-12-29T06:17:16.595Z,5.35
2022-12-29T06:19:43.887Z,4.00
2022-12-29T06:22:10.573Z,3.65
2022-12-29T06:24:37.265Z,2.92
2022-12-29T06:27:03.929Z,3.63
2022-12-29T06:29:30.621Z,3.50
2022-12-29T06:31:57.383Z,4.38
2022-12-29T06:34:24.301Z,3.63
2022-12-29T06:36:50.977Z,3.53
2022-12-29T06:39:17.647Z,3.30
2022-12-29T06:41:44.327Z,3.80
2022-12-29T06:44:10.974Z,5.50
2022-12-29T06:46:37.641Z,4.35
2022-12-29T06:49:04.297Z,4.18
2022-12-29T06:51:31.168Z,4.53
2022-12-29T06:53:57.815Z,3.80
2022-12-29T06:56:24.477Z,3.70
2022-12-29T06:58:51.170Z,5.10
2022-12-29T07:01:18.116Z,4.05
2022-12-29T07:03:44.878Z,4.93
2022-12-29T07:06:11.552Z,3.53
2022-12-29T07:08:38.245Z,3.22
2022-12-29T07:11:04.910Z,3.30
2022-12-29T07:13:31.584Z,5.22
2022-12-29T07:15:58.252Z,3.93
2022-12-29T07:18:24.909Z,3.35
2022-12-29T07:20:51.580Z,3.85
2022-12-29T07:23:18.450Z,4.00
2022-12-29T07:25:45.104Z,3.05
2022-12-29T07:28:11.771Z,3.90
2022-12-29T07:30:38.678Z,3.92
2022-12-29T07:33:05.539Z,3.97
2022-12-29T07:35:32.211Z,3.53
2022-12-29T07:37:59.106Z,4.15
2022-12-29T07:40:25.806Z,4.07
2022-12-29T07:42:52.479Z,3.60
2022-12-29T07:45:19.957Z,4.35
2022-12-29T07:47:46.621Z,3.97
2022-12-29T07:50:13.286Z,3.22
2022-12-29T07:52:40.187Z,4.57
2022-12-29T07:55:06.879Z,2.88
2022-12-29T07:57:33.544Z,3.88
2022-12-29T08:00:00.237Z,3.63
2022-12-29T08:02:27.047Z,3.95
2022-12-29T08:04:54.073Z,2.57
2022-12-29T08:07:20.977Z,3.10
2022-12-29T08:09:47.652Z,2.80
2022-12-29T08:12:14.335Z,3.20
2022-12-29T08:14:41.029Z,4.15
2022-12-29T08:17:07.695Z,3.40
2022-12-29T08:19:34.367Z,2.95
2022-12-29T08:22:01.076Z,3.72
2022-12-29T08:24:27.756Z,3.45
2022-12-29T08:26:54.455Z,4.60
2022-12-29T08:29:21.264Z,3.33
2022-12-29T08:31:48.055Z,3.00
2022-12-29T08:34:14.847Z,4.15
2022-12-29T08:36:41.551Z,2.75
2022-12-29T08:39:08.215Z,3.08
2022-12-29T08:41:34.904Z,2.97
2022-12-29T08:44:01.582Z,2.83
2022-12-29T08:46:28.375Z,2.80
2022-12-29T08:48:55.091Z,2.83
2022-12-29T08:51:24.774Z,2.85
2022-12-29T08:53:51.689Z,2.63
2022-12-29T08:56:18.340Z,2.90
2022-12-29T08:58:45.032Z,2.88
2022-12-29T09:01:11.812Z,3.03
2022-12-29T09:04:13.040Z,2.70
2022-12-29T09:06:25.230Z,3.17
2022-12-29T09:08:51.931Z,3.80
2022-12-29T09:11:18.595Z,2.92
2022-12-29T09:13:45.278Z,3.13
2022-12-29T09:16:12.013Z,3.42
2022-12-29T09:18:38.702Z,3.30
2022-12-29T09:21:05.402Z,2.75
2022-12-29T09:23:32.099Z,3.28
2022-12-29T09:25:58.757Z,2.70
2022-12-29T09:28:25.414Z,3.50
2022-12-29T09:30:52.125Z,2.60
2022-12-29T09:33:18.839Z,2.83
2022-12-29T09:35:45.506Z,2.65
2022-12-29T09:38:12.172Z,2.50
2022-12-29T09:40:38.825Z,2.97
2022-12-29T09:43:05.492Z,2.87
2022-12-29T09:45:32.166Z,3.20
2022-12-29T09:47:59.089Z,3.83
2022-12-29T09:50:25.797Z,3.30
2022-12-29T09:52:53.182Z,2.97
2022-12-29T09:55:19.864Z,3.17
2022-12-29T09:57:46.772Z,3.75
2022-12-29T10:00:13.560Z,3.20
2022-12-29T10:05:27.629Z,3.67
2022-12-29T10:07:54.302Z,3.00
2022-12-29T10:10:20.981Z,2.70
2022-12-29T10:12:47.886Z,3.22
2022-12-29T10:15:14.585Z,2.97
2022-12-29T10:17:41.271Z,2.70
2022-12-29T10:20:07.967Z,3.20
2022-12-29T10:22:34.629Z,3.05
2022-12-29T10:25:01.291Z,2.88
2022-12-29T10:27:27.958Z,2.63
2022-12-29T10:29:54.859Z,2.38
2022-12-29T10:32:21.548Z,2.73
2022-12-29T10:34:48.234Z,2.40
2022-12-29T10:37:14.915Z,2.72
2022-12-29T10:39:41.612Z,2.65
2022-12-29T10:42:08.295Z,2.55
2022-12-29T10:44:34.973Z,2.87
2022-12-29T10:47:01.634Z,2.83
2022-12-29T10:49:28.280Z,2.50
2022-12-29T10:51:54.951Z,2.50
2022-12-29T10:54:21.628Z,2.65
2022-12-29T10:56:48.314Z,2.83
2022-12-29T10:59:15.105Z,3.00
2022-12-29T11:01:41.916Z,2.70
2022-12-29T11:04:08.736Z,3.20
2022-12-29T11:06:35.397Z,2.17
2022-12-29T11:09:02.570Z,2.60
2022-12-29T11:11:29.248Z,2.67
2022-12-29T11:13:56.144Z,2.65
2022-12-29T11:16:22.856Z,2.78
2022-12-29T11:18:49.547Z,2.63
2022-12-29T11:21:16.219Z,3.33
2022-12-29T11:23:42.890Z,2.78
2022-12-29T11:26:09.575Z,3.88
2022-12-29T11:28:36.225Z,2.60
2022-12-29T11:31:03.099Z,3.33
2022-12-29T11:33:29.771Z,2.40
2022-12-29T11:35:56.442Z,2.50
2022-12-29T11:38:23.138Z,2.80
2022-12-29T11:40:50.075Z,3.42
2022-12-29T11:43:16.744Z,2.40
2022-12-29T11:45:43.409Z,2.70
2022-12-29T11:48:10.091Z,3.05
2022-12-29T11:50:36.783Z,2.80
2022-12-29T11:53:03.454Z,3.20
2022-12-29T11:55:30.367Z,2.72
2022-12-29T11:57:57.057Z,3.13
2022-12-29T12:00:23.735Z,2.78
2022-12-29T12:02:50.509Z,3.45
2022-12-29T12:05:17.263Z,2.90
2022-12-29T12:07:43.956Z,3.20
2022-12-29T12:10:10.625Z,2.93
2022-12-29T12:12:37.504Z,2.45
2022-12-29T12:15:04.204Z,3.40
2022-12-29T12:17:30.863Z,2.60
2022-12-29T12:19:57.541Z,3.22
2022-12-29T12:22:24.232Z,2.50
2022-12-29T12:24:51.107Z,2.63
2022-12-29T12:27:17.786Z,2.40
2022-12-29T12:29:44.476Z,2.58
2022-12-29T12:32:11.486Z,2.63
2022-12-29T12:34:38.204Z,2.30
2022-12-29T12:37:04.860Z,2.75
2022-12-29T12:39:31.748Z,2.20
2022-12-29T12:41:58.439Z,3.13
2022-12-29T12:44:25.118Z,2.83
2022-12-29T12:46:51.835Z,3.07
2022-12-29T12:49:18.514Z,2.75
2022-12-29T12:51:45.904Z,2.15
2022-12-29T12:54:12.587Z,2.90
2022-12-29T12:56:39.313Z,2.60
2022-12-29T12:59:09.865Z,2.90
2022-12-29T13:01:37.187Z,2.90
2022-12-29T13:04:04.044Z,2.38
2022-12-29T13:06:30.807Z,1.83
2022-12-29T13:08:57.714Z,3.55
2022-12-29T13:11:24.403Z,2.67
2022-12-29T13:13:51.097Z,3.88
2022-12-29T13:16:17.847Z,2.63
2022-12-29T13:18:44.756Z,2.33
2022-12-29T13:21:11.427Z,2.47
2022-12-29T13:23:38.098Z,2.20
2022-12-29T13:26:04.786Z,2.70
2022-12-29T13:28:31.494Z,2.88
2022-12-29T13:30:58.420Z,2.60
2022-12-29T13:33:25.225Z,2.60
2022-12-29T13:35:51.905Z,3.27
2022-12-29T13:38:18.582Z,3.33
2022-12-29T13:40:45.235Z,2.50
2022-12-29T13:43:11.910Z,2.35
2022-12-29T13:45:38.591Z,3.80
2022-12-29T13:48:05.456Z,2.73
2022-12-29T13:50:32.145Z,2.42
2022-12-29T13:52:58.764Z,2.60
2022-12-29T13:55:25.682Z,2.40
2022-12-29T13:57:52.395Z,2.58
2022-12-29T14:00:19.090Z,2.50
2022-12-29T14:02:45.881Z,2.70
2022-12-29T14:05:12.668Z,3.13
2022-12-29T14:07:39.335Z,2.60
2022-12-29T14:10:06.131Z,2.60
2022-12-29T14:12:32.802Z,2.77
2022-12-29T14:14:59.681Z,2.90
2022-12-29T14:17:26.355Z,2.92
2022-12-29T14:19:53.003Z,3.33
2022-12-29T14:22:19.649Z,2.63
2022-12-29T14:24:46.310Z,2.87
2022-12-29T14:27:13.014Z,2.42
2022-12-29T14:29:39.714Z,2.20
2022-12-29T14:32:06.611Z,2.85
2022-12-29T14:34:33.518Z,3.50
2022-12-29T14:37:00.213Z,3.33
2022-12-29T14:39:26.883Z,3.33
2022-12-29T14:41:53.536Z,2.67
2022-12-29T14:44:20.218Z,3.47
2022-12-29T14:46:47.145Z,3.67
2022-12-29T14:49:13.861Z,3.57
2022-12-29T14:51:40.552Z,2.83
2022-12-29T14:54:07.228Z,2.67
2022-12-29T14:56:33.909Z,3.47
2022-12-29T14:59:00.821Z,3.22
2022-12-29T15:01:27.564Z,2.87
2022-12-29T15:03:54.329Z,3.08
2022-12-29T15:06:20.981Z,3.50
2022-12-29T15:08:47.638Z,3.00
2022-12-29T15:11:14.310Z,2.92
2022-12-29T15:13:40.968Z,2.70
2022-12-29T15:16:07.684Z,2.50
2022-12-29T15:18:34.384Z,2.72
2022-12-29T15:21:01.069Z,2.58
2022-12-29T15:23:27.742Z,3.10
2022-12-29T15:25:54.420Z,2.87
2022-12-29T15:28:21.100Z,2.40
2022-12-29T15:30:47.995Z,2.58
2022-12-29T15:33:14.654Z,3.00
2022-12-29T15:35:41.348Z,2.22
2022-12-29T15:38:08.036Z,2.70
2022-12-29T15:40:34.719Z,3.28
2022-12-29T15:43:01.416Z,2.80
2022-12-29T15:45:28.144Z,3.13
2022-12-29T15:47:54.855Z,2.58
2022-12-29T15:50:21.542Z,2.40
2022-12-29T15:52:48.203Z,3.83
2022-12-29T15:55:14.901Z,3.40
2022-12-29T15:57:41.586Z,3.13
2022-12-29T16:00:08.301Z,2.85
2022-12-29T16:02:35.106Z,2.50
2022-12-29T16:05:17.289Z,2.95
2022-12-29T16:07:44.840Z,2.58
2022-12-29T16:10:11.523Z,3.33
2022-12-29T16:12:38.215Z,2.72
2022-12-29T16:15:04.911Z,3.47
2022-12-29T16:17:31.588Z,2.42
2022-12-29T16:19:58.269Z,2.58
2022-12-29T16:22:25.162Z,3.70
2022-12-29T16:24:51.852Z,2.92
2022-12-29T16:27:18.525Z,2.50
2022-12-29T16:29:45.171Z,3.53
2022-12-29T16:32:11.827Z,3.35
2022-12-29T16:34:38.514Z,3.08
2022-12-29T16:37:05.191Z,2.70
2022-12-29T16:39:31.890Z,2.60
2022-12-29T16:41:58.589Z,2.30
2022-12-29T16:44:25.261Z,2.50
2022-12-29T16:46:51.941Z,2.60
2022-12-29T16:49:21.727Z,2.70
2022-12-29T16:51:48.392Z,2.53
2022-12-29T16:54:15.059Z,2.60
2022-12-29T16:56:41.734Z,3.08
2022-12-29T16:59:08.433Z,2.70
2022-12-29T17:01:35.261Z,3.00
2022-12-29T17:04:01.981Z,2.80
2022-12-29T17:06:28.654Z,2.35
2022-12-29T17:08:55.567Z,2.83
2022-12-29T17:11:22.238Z,3.78
2022-12-29T17:13:49.123Z,3.22
2022-12-29T17:16:15.820Z,3.33
2022-12-29T17:18:42.753Z,3.47
2022-12-29T17:21:09.441Z,2.60
2022-12-29T17:23:36.121Z,2.70
2022-12-29T17:26:02.810Z,2.50
2022-12-29T17:28:29.494Z,2.20
2022-12-29T17:30:56.298Z,3.45
2022-12-29T17:33:23.013Z,3.30
2022-12-29T17:35:55.207Z,2.55
2022-12-29T17:38:22.497Z,2.97
2022-12-29T17:40:49.170Z,2.80
2022-12-29T17:43:15.824Z,2.42
2022-12-29T17:45:42.480Z,3.75
2022-12-29T17:48:09.144Z,2.58
2022-12-29T17:50:35.832Z,2.33
2022-12-29T17:53:02.479Z,3.37
2022-12-29T17:55:36.845Z,2.40
2022-12-29T17:58:04.542Z,2.30
2022-12-29T18:00:31.222Z,2.15
2022-12-29T18:02:58.058Z,2.75
2022-12-29T18:05:24.822Z,2.27
2022-12-29T18:07:51.498Z,2.53
2022-12-29T18:10:18.874Z,2.80
2022-12-29T18:12:45.568Z,3.20
2022-12-29T18:15:12.469Z,3.15
2022-12-29T18:17:39.140Z,2.40
2022-12-29T18:20:05.828Z,2.20
2022-12-29T18:22:32.587Z,2.13
2022-12-29T18:24:59.258Z,2.08
2022-12-29T18:27:25.936Z,3.10
2022-12-29T18:29:52.612Z,2.80
2022-12-29T18:32:19.290Z,2.38
2022-12-29T18:34:45.966Z,3.25
2022-12-29T18:37:12.646Z,2.83
2022-12-29T18:39:39.513Z,2.83
2022-12-29T18:42:06.215Z,2.20
2022-12-29T18:44:32.950Z,2.40
2022-12-29T18:46:59.645Z,2.70
2022-12-29T18:49:26.348Z,2.40
2022-12-29T18:51:53.024Z,1.98
2022-12-29T18:54:19.904Z,2.43
2022-12-29T18:56:46.550Z,2.33
2022-12-29T18:59:13.231Z,2.10
2022-12-29T19:01:39.982Z,2.60
2022-12-29T19:04:06.672Z,2.58
2022-12-29T19:06:33.327Z,2.43
2022-12-29T19:09:00.016Z,2.10
2022-12-29T19:11:26.900Z,2.10
2022-12-29T19:13:53.575Z,2.50
2022-12-29T19:16:20.349Z,2.83
2022-12-29T19:18:58.127Z,2.73
2022-12-29T19:21:30.693Z,2.88
2022-12-29T19:23:57.392Z,2.15
2022-12-29T19:26:24.112Z,2.33
2022-12-29T19:28:50.771Z,2.22
2022-12-29T19:31:17.501Z,2.47
2022-12-29T19:33:44.413Z,2.20
2022-12-29T19:36:11.085Z,2.28
2022-12-29T19:38:37.742Z,3.00
2022-12-29T19:41:04.394Z,2.85
2022-12-29T19:43:31.074Z,1.77
2022-12-29T19:45:57.766Z,2.13
2022-12-29T19:48:24.443Z,2.97
2022-12-29T19:50:51.388Z,2.72
2022-12-29T19:53:18.084Z,2.50
2022-12-29T19:55:44.752Z,2.33
2022-12-29T19:58:11.433Z,3.03
2022-12-29T20:00:38.142Z,2.58
2022-12-29T20:03:04.882Z,2.30
2022-12-29T20:05:31.633Z,2.80
2022-12-29T20:07:58.547Z,2.80
2022-12-29T20:10:25.212Z,2.55
2022-12-29T20:12:51.901Z,3.10
2022-12-29T20:15:18.572Z,2.15
2022-12-29T20:18:12.476Z,2.55
2022-12-29T20:20:31.887Z,3.07
2022-12-29T20:22:58.561Z,2.15
2022-12-29T20:28:11.893Z,2.08
2022-12-29T20:30:38.548Z,2.00
2022-12-29T20:33:08.320Z,2.90
2022-12-29T20:35:35.580Z,1.92
2022-12-29T20:38:02.276Z,1.98
2022-12-29T20:40:28.978Z,2.33
2022-12-29T20:42:55.662Z,2.30
2022-12-29T20:45:22.364Z,2.33
2022-12-29T20:47:49.031Z,1.70
2022-12-29T20:50:15.708Z,2.25
2022-12-29T20:52:42.398Z,2.25
2022-12-29T20:55:09.099Z,2.00
2022-12-29T20:57:57.540Z,2.47
2022-12-29T21:00:22.951Z,2.42
2022-12-29T21:02:49.795Z,1.95
2022-12-29T21:05:25.192Z,2.03
2022-12-29T21:07:52.392Z,2.38
2022-12-29T21:10:19.056Z,1.93
2022-12-29T21:12:45.763Z,2.47
2022-12-29T21:15:12.663Z,1.80
2022-12-29T21:17:39.328Z,2.10
2022-12-29T21:20:06.020Z,1.90
2022-12-29T21:22:32.709Z,1.67
2022-12-29T21:24:59.368Z,1.83
2022-12-29T21:27:26.028Z,1.80
2022-12-29T21:29:52.691Z,1.70
2022-12-29T21:32:19.567Z,2.00
2022-12-29T21:34:46.239Z,2.37
2022-12-29T21:37:14.373Z,2.05
2022-12-29T21:39:42.804Z,2.22
2022-12-29T21:42:09.498Z,2.00
2022-12-29T21:44:36.403Z,2.50
2022-12-29T21:47:03.112Z,1.80
2022-12-29T21:49:29.773Z,1.80
2022-12-29T21:51:56.459Z,1.45
2022-12-29T21:54:23.131Z,1.67
2022-12-29T21:56:49.809Z,1.90
2022-12-29T21:59:16.473Z,2.00
2022-12-29T22:01:43.211Z,1.70
2022-12-29T22:04:09.956Z,1.77
2022-12-29T22:06:36.666Z,2.90
2022-12-29T22:09:03.335Z,1.45
2022-12-29T22:11:30.264Z,1.50
2022-12-29T22:13:56.936Z,1.73
2022-12-29T22:16:23.624Z,1.60
2022-12-29T22:18:50.311Z,2.13
2022-12-29T22:21:16.962Z,1.20
2022-12-29T22:23:43.648Z,1.60
2022-12-29T22:26:10.319Z,2.25
2022-12-29T22:28:37.496Z,1.58
2022-12-29T22:31:04.229Z,1.83
2022-12-29T22:33:30.938Z,1.67
2022-12-29T22:35:57.633Z,1.67
2022-12-29T22:38:24.503Z,1.55
2022-12-29T22:40:51.224Z,1.58
2022-12-29T22:43:17.915Z,1.38
2022-12-29T22:45:44.850Z,2.03
2022-12-29T22:48:11.538Z,1.53
2022-12-29T22:50:38.202Z,1.27
2022-12-29T22:53:04.871Z,1.63
2022-12-29T22:55:31.565Z,1.17
2022-12-29T22:57:58.460Z,2.00
2022-12-29T23:00:25.139Z,1.77
2022-12-29T23:02:52.049Z,1.30
2022-12-29T23:05:18.879Z,1.45
2022-12-29T23:07:45.550Z,1.90
2022-12-29T23:10:12.226Z,1.10
2022-12-29T23:12:38.882Z,1.67
2022-12-29T23:15:05.838Z,1.38
2022-12-29T23:17:32.562Z,1.63
2022-12-29T23:19:59.234Z,1.45
2022-12-29T23:22:25.924Z,1.23
2022-12-29T23:24:52.599Z,1.43
2022-12-29T23:27:19.252Z,1.70
2022-12-29T23:29:45.929Z,1.40
2022-12-29T23:32:12.613Z,2.05
2022-12-29T23:34:39.320Z,1.55
2022-12-29T23:37:06.225Z,1.70
2022-12-29T23:39:32.879Z,1.52
2022-12-29T23:41:59.543Z,1.73
2022-12-29T23:44:26.240Z,0.88
2022-12-29T23:46:53.006Z,1.40
2022-12-29T23:49:19.751Z,1.60
2022-12-29T23:51:46.409Z,1.40
2022-12-29T23:54:13.071Z,1.50
2022-12-29T23:56:39.768Z,1.67
2022-12-29T23:59:06.686Z,1.50
